Time;durP1;ratioP1;P1;durP2;ratioP2;P2;SDS_P1;SDS_P2;PMS_P1;PMS_P2;Temp;Humidity;BMP_temperature;BMP_pressure;BME280_temperature;BME280_humidity;BME280_pressure;Samples;Min_cycle;Max_cycle;Signal;HPM_P1;HPM_P2
2021/08/31 00:00:24;;;;;;;8.50;6.45;;;22.00;66.30;;;;;;3147071;28;20052;-88
2021/08/31 00:01:56;;;;;;;8.00;6.70;;;21.90;66.20;;;;;;3147944;28;20045;-88
2021/08/31 00:03:27;;;;;;;9.13;6.50;;;21.90;66.30;;;;;;3147567;28;20134;-88
2021/08/31 00:04:59;;;;;;;6.95;6.25;;;21.90;66.30;;;;;;3144804;28;20048;-89
2021/08/31 00:06:31;;;;;;;8.10;6.50;;;22.00;66.30;;;;;;3138157;28;20722;-88
2021/08/31 00:08:03;;;;;;;7.78;6.47;;;21.90;66.30;;;;;;3147536;28;20074;-87
2021/08/31 00:09:34;;;;;;;9.40;6.18;;;21.90;66.30;;;;;;3148318;28;20048;-88
2021/08/31 00:11:06;;;;;;;7.95;5.85;;;21.90;66.30;;;;;;3148577;28;20044;-87
2021/08/31 00:12:38;;;;;;;7.10;6.20;;;21.90;66.30;;;;;;3147330;28;20496;-89
2021/08/31 00:14:11;;;;;;;9.35;6.45;;;21.90;66.30;;;;;;3144141;28;20106;-88
2021/08/31 00:15:43;;;;;;;7.63;6.00;;;21.90;66.30;;;;;;3135344;28;20053;-87
2021/08/31 00:17:16;;;;;;;9.02;6.38;;;21.90;66.20;;;;;;3136039;28;20049;-87
2021/08/31 00:18:48;;;;;;;7.68;6.45;;;22.00;66.20;;;;;;3138634;28;20503;-89
2021/08/31 00:20:20;;;;;;;8.18;6.60;;;21.90;66.20;;;;;;3136025;28;20447;-88
2021/08/31 00:21:52;;;;;;;8.65;6.18;;;21.90;66.20;;;;;;3144788;28;20052;-88
2021/08/31 00:23:23;;;;;;;8.55;6.40;;;21.90;66.30;;;;;;3148081;28;20506;-88
2021/08/31 00:24:55;;;;;;;8.25;6.00;;;21.90;66.30;;;;;;3148430;28;20044;-88
2021/08/31 00:26:27;;;;;;;7.32;5.88;;;21.90;66.30;;;;;;3148428;28;20048;-89
2021/08/31 00:27:58;;;;;;;6.60;5.90;;;21.90;66.20;;;;;;3147736;28;20045;-88
2021/08/31 00:29:32;;;;;;;7.57;6.32;;;21.90;66.20;;;;;;3147868;28;20048;-88
2021/08/31 00:31:04;;;;;;;8.27;6.75;;;21.90;66.10;;;;;;3147491;28;20055;-87
2021/08/31 00:32:35;;;;;;;7.38;6.20;;;21.90;66.20;;;;;;3147885;28;20052;-88
2021/08/31 00:34:07;;;;;;;11.27;6.40;;;21.90;66.20;;;;;;3148478;28;20098;-87
2021/08/31 00:35:39;;;;;;;8.85;6.45;;;21.80;66.20;;;;;;3148425;28;20652;-88
2021/08/31 00:37:10;;;;;;;7.53;5.95;;;21.80;66.20;;;;;;3148074;28;20044;-88
2021/08/31 00:38:42;;;;;;;9.27;6.47;;;21.80;66.10;;;;;;3144955;28;20044;-88
2021/08/31 00:40:14;;;;;;;6.47;5.75;;;21.80;66.20;;;;;;3135967;28;20053;-88
2021/08/31 00:41:47;;;;;;;10.43;6.35;;;21.90;66.20;;;;;;3135815;28;20057;-87
2021/08/31 00:43:19;;;;;;;7.72;5.88;;;21.80;66.20;;;;;;3134819;28;20500;-87
2021/08/31 00:44:52;;;;;;;7.65;5.80;;;21.80;66.20;;;;;;3135650;28;20053;-87
2021/08/31 00:46:24;;;;;;;8.35;6.30;;;21.80;66.20;;;;;;3134972;28;20052;-88
2021/08/31 00:47:56;;;;;;;9.20;6.38;;;21.80;66.20;;;;;;3134701;28;20042;-87
2021/08/31 00:49:28;;;;;;;6.38;5.65;;;21.80;66.20;;;;;;3139117;28;20056;-88
2021/08/31 00:51:00;;;;;;;7.03;5.85;;;21.80;66.10;;;;;;3143662;28;20062;-88
2021/08/31 00:52:31;;;;;;;8.27;6.20;;;21.80;66.10;;;;;;3135585;28;20049;-88
2021/08/31 00:54:03;;;;;;;6.80;5.95;;;21.80;66.20;;;;;;3134592;28;20053;-88
2021/08/31 00:55:35;;;;;;;7.47;6.20;;;21.80;66.10;;;;;;3135674;28;20053;-87
2021/08/31 00:57:05;;;;;;;9.93;6.28;;;21.80;66.20;;;;;;3135371;28;20045;-88
2021/08/31 00:58:38;;;;;;;7.95;6.00;;;21.70;66.20;;;;;;3134162;28;20668;-87
2021/08/31 01:00:13;;;;;;;8.60;6.22;;;21.70;66.20;;;;;;3134609;28;20448;-88
2021/08/31 01:01:45;;;;;;;7.70;6.22;;;21.70;66.10;;;;;;3135519;28;20049;-88
2021/08/31 01:03:15;;;;;;;7.47;6.23;;;21.80;66.10;;;;;;3134432;28;20049;-88
2021/08/31 01:04:47;;;;;;;6.63;5.63;;;21.80;66.10;;;;;;3135495;28;20051;-88
2021/08/31 01:06:19;;;;;;;6.97;6.20;;;21.80;66.10;;;;;;3135415;28;20045;-88
2021/08/31 01:07:50;;;;;;;6.38;5.78;;;21.80;66.10;;;;;;3134777;28;20056;-88
2021/08/31 01:09:21;;;;;;;6.63;5.93;;;21.80;66.10;;;;;;3135245;28;20045;-88
2021/08/31 01:10:53;;;;;;;9.38;6.10;;;21.70;66.10;;;;;;3135416;28;20460;-87
2021/08/31 01:12:27;;;;;;;7.65;6.00;;;21.70;66.10;;;;;;3135416;28;20053;-88
2021/08/31 01:13:59;;;;;;;7.13;5.88;;;21.70;66.10;;;;;;3134256;28;20049;-87
2021/08/31 01:15:33;;;;;;;6.65;5.90;;;21.70;66.00;;;;;;3134765;28;20400;-88
2021/08/31 01:17:04;;;;;;;7.43;6.00;;;21.70;66.00;;;;;;3135134;28;20049;-87
2021/08/31 01:18:36;;;;;;;7.43;6.13;;;21.70;66.20;;;;;;3133126;28;20048;-87
2021/08/31 01:20:09;;;;;;;6.72;5.78;;;21.70;66.00;;;;;;3135147;28;20045;-87
2021/08/31 01:21:41;;;;;;;7.15;6.10;;;21.70;65.90;;;;;;3142334;28;20071;-88
2021/08/31 01:23:13;;;;;;;8.23;6.00;;;21.70;65.90;;;;;;3147048;28;20082;-87
2021/08/31 01:24:45;;;;;;;7.60;6.10;;;21.70;65.90;;;;;;3147729;28;20048;-88
2021/08/31 01:26:19;;;;;;;6.90;6.00;;;21.70;65.90;;;;;;3147714;28;20048;-87
2021/08/31 01:27:50;;;;;;;6.93;6.18;;;21.70;65.90;;;;;;3146568;28;20649;-88
2021/08/31 01:29:22;;;;;;;7.13;6.13;;;21.60;65.90;;;;;;3146765;28;20044;-88
2021/08/31 01:30:54;;;;;;;8.43;6.18;;;21.70;66.60;;;;;;3146010;28;20044;-88
2021/08/31 01:32:25;;;;;;;6.70;6.00;;;21.70;65.90;;;;;;3146929;28;20060;-88
2021/08/31 01:33:57;;;;;;;6.65;5.95;;;21.60;66.00;;;;;;3134907;28;20425;-88
2021/08/31 01:35:29;;;;;;;6.18;5.57;;;21.60;66.10;;;;;;3146460;28;20527;-88
2021/08/31 01:37:00;;;;;;;8.90;5.75;;;21.60;66.10;;;;;;3146500;28;20105;-88
2021/08/31 01:38:32;;;;;;;8.35;6.30;;;21.60;66.20;;;;;;3145329;28;20056;-88
2021/08/31 01:40:04;;;;;;;7.22;5.80;;;21.60;66.20;;;;;;3134534;28;20049;-88
2021/08/31 01:41:37;;;;;;;6.88;5.78;;;21.60;66.20;;;;;;3134100;28;20049;-88
2021/08/31 01:43:09;;;;;;;6.53;5.90;;;21.60;66.20;;;;;;3133413;28;20515;-88
2021/08/31 01:44:41;;;;;;;7.68;5.68;;;21.60;66.20;;;;;;3134611;28;20056;-88
2021/08/31 01:46:13;;;;;;;6.57;5.80;;;21.60;66.20;;;;;;3133475;28;20049;-88
2021/08/31 01:47:45;;;;;;;6.28;5.65;;;21.50;66.20;;;;;;3133474;28;20053;-88
2021/08/31 01:49:16;;;;;;;7.65;5.80;;;21.50;66.20;;;;;;3137549;28;20053;-88
2021/08/31 01:50:48;;;;;;;7.28;5.93;;;21.50;66.20;;;;;;3142617;28;20075;-88
2021/08/31 01:52:20;;;;;;;6.25;5.55;;;21.50;66.10;;;;;;3146561;28;20118;-88
2021/08/31 01:53:53;;;;;;;6.50;5.90;;;21.60;66.20;;;;;;3146391;28;20102;-88
2021/08/31 01:55:24;;;;;;;7.15;6.15;;;21.50;66.10;;;;;;3147077;28;20045;-88
2021/08/31 01:56:57;;;;;;;8.00;5.70;;;21.50;66.10;;;;;;3147676;28;20431;-88
2021/08/31 01:58:29;;;;;;;6.45;5.75;;;21.50;66.20;;;;;;3146362;28;20406;-88
2021/08/31 02:00:01;;;;;;;6.60;5.88;;;21.50;66.20;;;;;;3147197;28;20045;-88
2021/08/31 02:01:33;;;;;;;6.47;5.70;;;21.50;66.20;;;;;;3145971;28;20049;-87
2021/08/31 02:03:05;;;;;;;6.95;6.25;;;21.50;66.20;;;;;;3146118;28;20036;-87
2021/08/31 02:04:36;;;;;;;6.38;5.78;;;21.50;66.10;;;;;;3146645;28;20059;-88
2021/08/31 02:06:09;;;;;;;6.82;6.13;;;21.50;66.10;;;;;;3146569;28;20105;-88
2021/08/31 02:07:41;;;;;;;8.32;5.80;;;21.50;66.10;;;;;;3145782;28;20098;-88
2021/08/31 02:09:12;;;;;;;6.38;5.78;;;21.50;66.10;;;;;;3146136;28;20048;-88
2021/08/31 02:10:44;;;;;;;6.30;5.70;;;21.50;66.00;;;;;;3146628;28;20052;-88
2021/08/31 02:12:17;;;;;;;8.20;5.70;;;21.50;66.00;;;;;;3146453;28;20044;-88
2021/08/31 02:13:49;;;;;;;6.13;5.53;;;21.50;66.00;;;;;;3144749;28;20101;-88
2021/08/31 02:15:20;;;;;;;6.47;5.78;;;21.50;66.00;;;;;;3133195;28;20076;-88
2021/08/31 02:16:52;;;;;;;6.93;5.78;;;21.50;66.00;;;;;;3134430;28;20057;-89
2021/08/31 02:18:24;;;;;;;6.63;5.93;;;21.50;65.90;;;;;;3133892;28;20047;-88
2021/08/31 02:19:56;;;;;;;6.63;5.63;;;21.50;66.00;;;;;;3145598;28;20098;-88
2021/08/31 02:21:28;;;;;;;7.43;5.68;;;21.50;66.00;;;;;;3133788;28;20473;-88
2021/08/31 02:22:59;;;;;;;7.43;5.97;;;21.50;66.00;;;;;;3132905;28;20056;-88
2021/08/31 02:24:31;;;;;;;6.78;5.70;;;21.50;65.90;;;;;;3134050;28;20111;-88
2021/08/31 02:26:03;;;;;;;6.10;5.50;;;21.50;65.90;;;;;;3134189;28;20052;-89
2021/08/31 02:27:36;;;;;;;6.70;5.57;;;21.50;65.90;;;;;;3133468;28;20668;-88
2021/08/31 02:29:08;;;;;;;6.53;5.85;;;21.50;65.90;;;;;;3133476;28;20083;-87
2021/08/31 02:30:39;;;;;;;6.72;5.68;;;21.50;65.80;;;;;;3132894;28;20495;-88
2021/08/31 02:32:10;;;;;;;6.40;5.80;;;21.50;65.80;;;;;;3133406;28;20080;-88
2021/08/31 02:33:42;;;;;;;6.40;5.70;;;21.40;65.90;;;;;;3132407;28;20041;-88
2021/08/31 02:35:14;;;;;;;7.38;6.00;;;21.40;65.90;;;;;;3137182;28;20045;-88
2021/08/31 02:36:45;;;;;;;7.82;5.50;;;21.50;66.00;;;;;;3146116;28;20064;-89
2021/08/31 02:38:17;;;;;;;8.13;5.97;;;21.40;65.90;;;;;;3144340;28;20082;-88
2021/08/31 02:39:49;;;;;;;5.85;5.30;;;21.50;65.90;;;;;;3145953;28;20052;-89
2021/08/31 02:41:21;;;;;;;6.30;5.70;;;21.40;65.90;;;;;;3146037;28;20056;-87
2021/08/31 02:42:54;;;;;;;5.88;5.25;;;21.50;65.90;;;;;;3145064;28;20044;-88
2021/08/31 02:44:25;;;;;;;7.43;5.82;;;21.40;65.90;;;;;;3145212;28;20106;-88
2021/08/31 02:46:00;;;;;;;6.25;5.65;;;21.40;65.90;;;;;;3144643;28;20535;-88
2021/08/31 02:47:32;;;;;;;5.80;5.30;;;21.40;65.90;;;;;;3146115;28;20049;-88
2021/08/31 02:49:04;;;;;;;6.10;5.50;;;21.40;65.90;;;;;;3141444;28;20071;-89
2021/08/31 02:50:36;;;;;;;6.35;5.75;;;21.40;65.90;;;;;;3146513;28;20110;-88
2021/08/31 02:52:08;;;;;;;6.97;5.93;;;21.40;65.90;;;;;;3146289;28;20063;-88
2021/08/31 02:53:40;;;;;;;6.35;5.72;;;21.40;65.90;;;;;;3145338;28;20503;-89
2021/08/31 02:55:12;;;;;;;5.93;5.18;;;21.40;65.90;;;;;;3146437;28;20514;-88
2021/08/31 02:56:43;;;;;;;6.43;5.67;;;21.40;65.90;;;;;;3146363;28;20503;-88
2021/08/31 02:58:17;;;;;;;6.80;5.88;;;21.40;65.90;;;;;;3145394;28;20297;-88
2021/08/31 02:59:48;;;;;;;6.70;6.00;;;21.40;65.90;;;;;;3146411;28;20531;-88
2021/08/31 03:01:31;;;;;;;7.40;5.90;;;21.40;65.90;;;;;;3145690;28;20709;-88
2021/08/31 03:03:02;;;;;;;6.25;5.60;;;21.40;65.90;;;;;;3146035;28;20609;-88
2021/08/31 03:04:35;;;;;;;6.25;5.55;;;21.30;65.90;;;;;;3146335;28;20048;-88
2021/08/31 03:06:06;;;;;;;6.00;5.40;;;21.30;65.90;;;;;;3146435;28;20521;-88
2021/08/31 03:07:38;;;;;;;7.20;6.00;;;21.30;65.90;;;;;;3136941;28;20079;-88
2021/08/31 03:09:09;;;;;;;6.13;5.22;;;21.30;66.00;;;;;;3137591;28;20048;-89
2021/08/31 03:10:41;;;;;;;6.68;5.97;;;21.30;66.00;;;;;;3133970;28;20052;-89
2021/08/31 03:12:13;;;;;;;6.20;5.57;;;21.30;65.90;;;;;;3133878;28;20049;-88
2021/08/31 03:13:46;;;;;;;6.60;5.20;;;21.30;65.90;;;;;;3133403;28;20044;-88
2021/08/31 03:15:18;;;;;;;6.00;5.40;;;21.40;65.90;;;;;;3133064;28;20087;-88
2021/08/31 03:16:49;;;;;;;5.63;5.03;;;21.30;65.80;;;;;;3133844;28;20053;-88
2021/08/31 03:18:21;;;;;;;6.95;5.63;;;21.30;65.80;;;;;;3133010;28;20041;-88
2021/08/31 03:19:53;;;;;;;5.72;5.20;;;21.30;65.90;;;;;;3134356;28;20041;-88
2021/08/31 03:21:25;;;;;;;6.47;5.82;;;21.30;65.90;;;;;;3141079;28;20049;-88
2021/08/31 03:22:56;;;;;;;6.30;5.28;;;21.30;65.90;;;;;;3126242;28;20044;-88
2021/08/31 03:24:28;;;;;;;6.45;5.78;;;21.30;65.90;;;;;;3145270;28;20111;-88
2021/08/31 03:26:00;;;;;;;6.40;5.75;;;21.30;65.90;;;;;;3134427;28;20115;-88
2021/08/31 03:27:32;;;;;;;6.30;5.57;;;21.30;65.90;;;;;;3133736;28;20045;-88
2021/08/31 03:29:05;;;;;;;5.75;5.18;;;21.30;65.90;;;;;;3132645;28;20124;-88
2021/08/31 03:30:36;;;;;;;7.05;5.40;;;21.30;65.90;;;;;;3133011;28;20083;-88
2021/08/31 03:32:08;;;;;;;6.47;5.88;;;21.30;65.90;;;;;;3134076;28;20053;-88
2021/08/31 03:33:40;;;;;;;7.00;5.60;;;21.30;65.90;;;;;;3139592;28;20144;-88
2021/08/31 03:35:12;;;;;;;6.90;5.40;;;21.20;65.80;;;;;;3142945;28;20388;-88
2021/08/31 03:36:44;;;;;;;5.85;5.30;;;21.30;65.90;;;;;;3133705;28;20049;-88
2021/08/31 03:38:16;;;;;;;5.70;5.00;;;21.30;65.80;;;;;;3132198;28;20144;-89
2021/08/31 03:39:48;;;;;;;7.32;5.45;;;21.20;65.80;;;;;;3133735;28;20059;-88
2021/08/31 03:41:20;;;;;;;7.45;5.35;;;21.30;65.80;;;;;;3133653;28;20068;-88
2021/08/31 03:42:51;;;;;;;7.30;5.57;;;21.30;65.80;;;;;;3135105;28;20049;-88
2021/08/31 03:44:24;;;;;;;6.10;5.50;;;21.20;65.80;;;;;;3135424;28;20045;-88
2021/08/31 03:45:56;;;;;;;5.38;4.88;;;21.20;65.90;;;;;;3134381;28;20508;-88
2021/08/31 03:47:28;;;;;;;5.68;5.05;;;21.20;65.90;;;;;;3135162;28;20060;-88
2021/08/31 03:49:00;;;;;;;6.22;5.45;;;21.20;65.80;;;;;;3135953;28;20045;-88
2021/08/31 03:50:31;;;;;;;5.88;5.13;;;21.20;65.80;;;;;;3147651;28;20083;-88
2021/08/31 03:52:04;;;;;;;5.95;4.95;;;21.20;65.90;;;;;;3136857;28;20487;-88
2021/08/31 03:53:35;;;;;;;5.80;5.30;;;21.20;65.80;;;;;;3134054;28;20041;-88
2021/08/31 03:55:08;;;;;;;5.47;4.97;;;21.30;65.70;;;;;;3135014;28;20057;-88
2021/08/31 03:56:40;;;;;;;6.38;5.75;;;21.40;65.30;;;;;;3135011;28;20057;-88
2021/08/31 03:58:11;;;;;;;5.80;5.20;;;21.40;65.10;;;;;;3133693;28;20055;-88
2021/08/31 03:59:45;;;;;;;6.30;5.20;;;21.50;65.00;;;;;;3135078;28;20165;-88
2021/08/31 04:01:16;;;;;;;5.28;4.70;;;21.60;64.60;;;;;;3134069;28;20090;-88
2021/08/31 04:02:48;;;;;;;5.60;5.10;;;21.80;64.10;;;;;;3134075;28;20055;-89
2021/08/31 04:04:20;;;;;;;8.30;4.82;;;21.90;63.70;;;;;;3135192;28;20118;-88
2021/08/31 04:05:52;;;;;;;5.40;4.90;;;22.00;63.30;;;;;;3135053;28;20082;-88
2021/08/31 04:07:23;;;;;;;5.75;5.00;;;22.10;63.10;;;;;;3134955;28;20408;-88
2021/08/31 04:08:55;;;;;;;5.40;4.90;;;22.20;63.60;;;;;;3133898;28;20037;-88
2021/08/31 04:10:27;;;;;;;5.63;5.10;;;22.30;62.70;;;;;;3134958;28;20393;-88
2021/08/31 04:11:58;;;;;;;5.20;4.70;;;22.40;62.30;;;;;;3134812;28;20057;-88
2021/08/31 04:13:31;;;;;;;6.45;5.03;;;22.50;62.00;;;;;;3134035;28;20040;-89
2021/08/31 04:15:05;;;;;;;5.30;4.80;;;22.60;61.80;;;;;;3146106;28;20063;-89
2021/08/31 04:16:36;;;;;;;5.20;4.70;;;22.70;61.80;;;;;;3147545;28;20094;-88
2021/08/31 04:18:09;;;;;;;5.25;4.75;;;22.80;61.40;;;;;;3147039;28;20048;-88
2021/08/31 04:19:40;;;;;;;4.70;4.20;;;22.90;61.20;;;;;;3147578;28;20051;-89
2021/08/31 04:21:12;;;;;;;5.00;4.43;;;22.90;60.90;;;;;;3147142;28;20741;-88
2021/08/31 04:22:43;;;;;;;4.72;4.20;;;23.00;60.80;;;;;;3146786;28;20548;-89
2021/08/31 04:24:14;;;;;;;5.75;4.78;;;23.10;60.70;;;;;;3147175;28;20052;-88
2021/08/31 04:25:46;;;;;;;4.60;4.20;;;23.10;60.50;;;;;;3147482;28;20044;-88
2021/08/31 04:27:18;;;;;;;4.90;4.40;;;23.20;60.30;;;;;;3147349;28;20483;-88
2021/08/31 04:28:50;;;;;;;4.72;4.22;;;23.30;60.20;;;;;;3146025;28;20542;-88
2021/08/31 04:30:23;;;;;;;7.13;4.38;;;23.30;59.90;;;;;;3145933;28;20094;-89
2021/08/31 04:31:55;;;;;;;4.20;3.80;;;23.40;59.80;;;;;;3147016;28;20515;-88
2021/08/31 04:33:26;;;;;;;4.82;4.43;;;23.50;59.80;;;;;;3146141;28;20048;-89
2021/08/31 04:35:02;;;;;;;5.50;4.13;;;23.50;59.70;;;;;;3138745;28;20147;-88
2021/08/31 04:36:34;;;;;;;4.80;4.40;;;23.50;59.60;;;;;;3139771;28;20056;-88
2021/08/31 04:38:06;;;;;;;4.43;4.03;;;23.60;60.20;;;;;;3136902;28;20055;-88
2021/08/31 04:39:37;;;;;;;4.70;4.20;;;23.60;59.50;;;;;;3146653;28;20158;-88
2021/08/31 04:41:10;;;;;;;4.68;4.28;;;23.60;59.40;;;;;;3158373;28;20051;-89
2021/08/31 04:42:42;;;;;;;5.03;4.10;;;23.60;59.30;;;;;;3111147;28;1359104;-88
2021/08/31 04:44:14;;;;;;;4.40;4.00;;;23.70;59.20;;;;;;3160371;28;20044;-88
2021/08/31 04:45:47;;;;;;;4.70;4.20;;;23.70;59.20;;;;;;3159233;28;20586;-88
2021/08/31 04:47:17;;;;;;;5.55;4.03;;;23.70;59.30;;;;;;3160103;28;20522;-88
2021/08/31 04:48:49;;;;;;;4.32;3.92;;;23.70;59.20;;;;;;3154312;28;20036;-88
2021/08/31 04:50:20;;;;;;;4.90;4.50;;;23.80;59.80;;;;;;3147322;28;20045;-89
2021/08/31 04:51:52;;;;;;;4.78;4.13;;;23.80;59.20;;;;;;3147603;28;20049;-89
2021/08/31 04:53:24;;;;;;;4.60;3.92;;;23.80;59.80;;;;;;3145458;28;20419;-88
2021/08/31 04:54:56;;;;;;;4.80;4.30;;;23.80;59.10;;;;;;3141071;28;20053;-88
2021/08/31 04:56:28;;;;;;;4.60;4.18;;;23.80;59.00;;;;;;3135047;28;20048;-89
2021/08/31 04:58:00;;;;;;;4.80;4.40;;;23.80;59.10;;;;;;3133779;28;20099;-89
2021/08/31 04:59:32;;;;;;;6.70;4.22;;;23.80;59.20;;;;;;3134668;28;20041;-87
2021/08/31 05:01:05;;;;;;;5.72;4.60;;;23.80;59.50;;;;;;3134208;28;20661;-87
2021/08/31 05:02:38;;;;;;;8.57;4.30;;;23.70;59.90;;;;;;3134448;28;20623;-87
2021/08/31 05:04:11;;;;;;;7.75;4.13;;;23.70;60.00;;;;;;3135013;28;20045;-88
2021/08/31 05:05:43;;;;;;;8.23;4.18;;;23.80;60.00;;;;;;3135183;28;20416;-88
2021/08/31 05:07:17;;;;;;;5.18;4.03;;;23.70;60.20;;;;;;3134892;28;20087;-87
2021/08/31 05:08:48;;;;;;;7.03;3.97;;;23.70;60.50;;;;;;3133395;28;20071;-87
2021/08/31 05:10:20;;;;;;;9.18;4.10;;;23.70;60.60;;;;;;3140880;28;20049;-87
2021/08/31 05:11:52;;;;;;;5.05;4.07;;;23.70;60.60;;;;;;3135203;28;20057;-87
2021/08/31 05:13:24;;;;;;;7.57;4.28;;;23.60;60.70;;;;;;3134132;28;20048;-87
2021/08/31 05:14:56;;;;;;;4.80;4.25;;;23.60;60.70;;;;;;3134856;28;20127;-87
2021/08/31 05:16:29;;;;;;;7.68;4.45;;;23.50;60.10;;;;;;3139224;28;20546;-86
2021/08/31 05:18:01;;;;;;;10.85;4.32;;;23.40;58.00;;;;;;3146930;28;20472;-86
2021/08/31 05:19:33;;;;;;;8.68;4.95;;;23.40;57.90;;;;;;3136631;28;20114;-87
2021/08/31 05:21:06;;;;;;;6.00;4.15;;;23.30;58.30;;;;;;3135386;28;20439;-87
2021/08/31 05:22:37;;;;;;;10.95;4.65;;;23.30;58.80;;;;;;3146525;28;20076;-87
2021/08/31 05:24:09;;;;;;;9.50;4.60;;;23.40;58.20;;;;;;3147644;28;20546;-86
2021/08/31 05:25:41;;;;;;;9.50;4.82;;;23.40;57.60;;;;;;3147435;28;20304;-89
2021/08/31 05:27:13;;;;;;;7.45;4.60;;;23.50;57.30;;;;;;3147696;28;20055;-89
2021/08/31 05:28:45;;;;;;;11.93;4.70;;;23.50;56.90;;;;;;3144563;28;20048;-87
2021/08/31 05:30:16;;;;;;;9.40;4.53;;;23.60;57.50;;;;;;3146645;28;20125;-88
2021/08/31 05:31:49;;;;;;;6.68;3.80;;;23.60;57.80;;;;;;3144010;28;20098;-87
2021/08/31 05:33:21;;;;;;;10.38;4.43;;;23.70;57.80;;;;;;3146915;28;20675;-87
2021/08/31 05:34:53;;;;;;;9.90;4.30;;;23.80;57.80;;;;;;3138649;28;20041;-86
2021/08/31 05:36:27;;;;;;;8.68;4.47;;;23.90;57.70;;;;;;3135415;28;20057;-87
2021/08/31 05:37:58;;;;;;;8.45;4.18;;;24.00;57.50;;;;;;3134024;28;20041;-89
2021/08/31 05:39:33;;;;;;;12.30;4.57;;;24.00;56.90;;;;;;3134504;28;20045;-88
2021/08/31 05:41:05;;;;;;;5.88;4.07;;;24.00;56.50;;;;;;3134705;28;20057;-88
2021/08/31 05:42:37;;;;;;;9.30;4.45;;;24.00;55.90;;;;;;3134087;28;20138;-87
2021/08/31 05:44:09;;;;;;;8.43;4.38;;;24.10;55.60;;;;;;3134945;28;20110;-86
2021/08/31 05:45:41;;;;;;;9.63;4.83;;;24.10;55.60;;;;;;3133364;28;20047;-88
2021/08/31 05:47:14;;;;;;;11.18;4.78;;;24.10;55.40;;;;;;3135282;28;20717;-86
2021/08/31 05:48:46;;;;;;;11.68;4.25;;;24.10;55.20;;;;;;3134179;28;20053;-86
2021/08/31 05:50:17;;;;;;;10.63;4.10;;;24.10;55.00;;;;;;3147005;28;20090;-87
2021/08/31 05:51:51;;;;;;;11.75;3.95;;;24.20;55.00;;;;;;3136736;28;20052;-88
2021/08/31 05:53:23;;;;;;;5.30;3.95;;;24.20;54.90;;;;;;3138727;28;20481;-87
2021/08/31 05:54:54;;;;;;;7.70;4.35;;;24.20;55.10;;;;;;3146550;28;20052;-87
2021/08/31 05:56:26;;;;;;;9.25;4.30;;;24.20;54.60;;;;;;3146702;28;20133;-87
2021/08/31 05:57:58;;;;;;;10.00;4.00;;;24.20;54.50;;;;;;3146209;28;20044;-87
2021/08/31 05:59:29;;;;;;;7.65;4.35;;;24.10;54.50;;;;;;3146596;28;20102;-87
2021/08/31 06:01:01;;;;;;;8.85;4.57;;;24.10;54.50;;;;;;3146407;28;20049;-87
2021/08/31 06:02:34;;;;;;;12.27;4.82;;;24.10;54.70;;;;;;3147178;28;20040;-86
2021/08/31 06:04:06;;;;;;;7.93;4.45;;;24.10;54.60;;;;;;3146477;28;20067;-87
2021/08/31 06:05:38;;;;;;;10.18;4.50;;;24.10;54.80;;;;;;3147294;28;20415;-87
2021/08/31 06:07:11;;;;;;;10.93;4.70;;;24.10;55.00;;;;;;3147264;28;20471;-87
2021/08/31 06:08:42;;;;;;;14.23;4.75;;;24.10;55.30;;;;;;3141757;28;20053;-87
2021/08/31 06:10:15;;;;;;;10.10;4.18;;;24.10;55.30;;;;;;3145354;28;20113;-87
2021/08/31 06:11:47;;;;;;;13.35;5.07;;;24.10;55.30;;;;;;3146418;28;20048;-87
2021/08/31 06:13:18;;;;;;;11.32;4.40;;;24.10;55.60;;;;;;3142256;28;20515;-87
2021/08/31 06:14:50;;;;;;;9.13;4.30;;;24.10;55.70;;;;;;3143155;28;20052;-87
2021/08/31 06:16:22;;;;;;;11.80;4.82;;;24.10;55.80;;;;;;3146173;28;20052;-86
2021/08/31 06:17:55;;;;;;;14.23;4.32;;;23.90;56.10;;;;;;3138406;28;20050;-87
2021/08/31 06:19:27;;;;;;;14.93;4.72;;;23.90;56.60;;;;;;3147712;28;20148;-86
2021/08/31 06:20:59;;;;;;;9.43;3.78;;;23.80;56.50;;;;;;3135165;28;20053;-88
2021/08/31 06:22:31;;;;;;;12.47;4.90;;;23.70;56.50;;;;;;3148682;28;20051;-87
2021/08/31 06:24:02;;;;;;;13.05;4.25;;;23.80;56.50;;;;;;3138062;28;20534;-86
2021/08/31 06:25:34;;;;;;;12.20;4.90;;;23.80;56.60;;;;;;3147685;28;20483;-87
2021/08/31 06:27:06;;;;;;;6.55;3.83;;;23.80;56.40;;;;;;3157613;28;20055;-88
2021/08/31 06:28:38;;;;;;;8.33;4.40;;;23.90;56.40;;;;;;3152351;28;20049;-86
2021/08/31 06:30:10;;;;;;;5.82;4.13;;;23.90;56.70;;;;;;3146527;28;20067;-87
2021/08/31 06:31:42;;;;;;;6.93;4.18;;;23.80;56.90;;;;;;3146835;28;20419;-87
2021/08/31 06:33:15;;;;;;;12.57;4.55;;;23.80;56.90;;;;;;3146494;28;20045;-87
2021/08/31 06:34:46;;;;;;;7.03;3.92;;;23.90;56.70;;;;;;3134471;28;20045;-86
2021/08/31 06:36:18;;;;;;;8.85;4.55;;;23.90;57.00;;;;;;3139201;28;20052;-86
2021/08/31 06:37:50;;;;;;;7.95;4.30;;;23.90;56.90;;;;;;3155457;28;20059;-86
2021/08/31 06:39:22;;;;;;;5.68;4.28;;;24.00;56.80;;;;;;3154934;28;20488;-86
2021/08/31 06:40:53;;;;;;;11.07;4.45;;;24.00;56.70;;;;;;3155686;28;20047;-87
2021/08/31 06:42:25;;;;;;;9.55;4.05;;;24.00;56.70;;;;;;3151967;28;20044;-86
2021/08/31 06:43:57;;;;;;;13.75;4.45;;;24.00;56.60;;;;;;3146348;28;20598;-87
2021/08/31 06:45:29;;;;;;;5.85;4.07;;;24.10;56.70;;;;;;3149483;28;20044;-87
2021/08/31 06:47:00;;;;;;;11.27;4.03;;;24.10;56.60;;;;;;3146762;28;20059;-86
2021/08/31 06:48:34;;;;;;;7.03;4.55;;;24.10;56.60;;;;;;3149011;28;20043;-86
2021/08/31 06:50:10;;;;;;;6.80;4.05;;;24.10;56.60;;;;;;3144584;28;20049;-87
2021/08/31 06:51:42;;;;;;;9.02;4.00;;;24.10;56.60;;;;;;3149204;28;20083;-86
2021/08/31 06:53:14;;;;;;;7.15;4.13;;;24.20;56.40;;;;;;3150143;28;20040;-86
2021/08/31 06:54:46;;;;;;;10.77;4.10;;;24.20;56.40;;;;;;3159877;28;20044;-87
2021/08/31 06:56:20;;;;;;;5.65;4.30;;;24.20;56.30;;;;;;3160518;28;20044;-87
2021/08/31 06:57:52;;;;;;;7.93;3.80;;;24.30;56.30;;;;;;3158870;28;20494;-86
2021/08/31 06:59:24;;;;;;;11.68;4.30;;;24.20;56.40;;;;;;3159512;28;20048;-86
2021/08/31 07:00:55;;;;;;;12.23;4.20;;;24.20;56.50;;;;;;3158810;28;20048;-87
2021/08/31 07:02:27;;;;;;;15.57;5.28;;;24.30;56.90;;;;;;3159636;28;20066;-86
2021/08/31 07:04:00;;;;;;;16.65;4.65;;;24.30;57.00;;;;;;3158526;28;20051;-87
2021/08/31 07:05:32;;;;;;;15.07;4.82;;;24.30;57.40;;;;;;3159344;28;20044;-87
2021/08/31 07:07:04;;;;;;;15.30;4.68;;;24.30;57.70;;;;;;3159887;28;20093;-86
2021/08/31 07:08:36;;;;;;;16.73;4.50;;;24.30;57.70;;;;;;3159079;28;20463;-88
2021/08/31 07:10:09;;;;;;;17.60;5.15;;;24.30;57.70;;;;;;3159279;28;20676;-88
2021/08/31 07:11:41;;;;;;;14.45;4.82;;;24.40;58.30;;;;;;3159094;28;20048;-87
2021/08/31 07:13:14;;;;;;;11.35;4.72;;;24.30;58.80;;;;;;3158207;28;20046;-87
2021/08/31 07:14:47;;;;;;;12.68;5.20;;;24.30;59.30;;;;;;3159327;28;20097;-86
2021/08/31 07:16:19;;;;;;;13.02;4.75;;;24.30;59.30;;;;;;3158824;28;20369;-85
2021/08/31 07:17:51;;;;;;;20.45;4.72;;;24.30;59.20;;;;;;3161092;28;20101;-87
2021/08/31 07:19:24;;;;;;;10.88;4.43;;;24.30;59.20;;;;;;3157307;28;20052;-86
2021/08/31 07:20:56;;;;;;;11.07;4.60;;;24.20;59.30;;;;;;3149072;28;20067;-87
2021/08/31 07:22:27;;;;;;;12.68;4.50;;;24.20;59.40;;;;;;3149537;28;20075;-86
2021/08/31 07:23:59;;;;;;;9.50;4.60;;;24.20;59.50;;;;;;3148648;28;20051;-86
2021/08/31 07:25:31;;;;;;;8.18;4.53;;;24.20;59.30;;;;;;3149417;28;20503;-86
2021/08/31 07:27:03;;;;;;;12.10;4.53;;;24.20;59.30;;;;;;3149302;28;20053;-86
2021/08/31 07:28:35;;;;;;;13.43;4.85;;;24.10;59.20;;;;;;3148228;28;20090;-87
2021/08/31 07:30:08;;;;;;;16.73;4.57;;;24.10;59.40;;;;;;3148428;28;20090;-88
2021/08/31 07:31:39;;;;;;;12.95;5.10;;;24.10;59.40;;;;;;3148921;28;20135;-88
2021/08/31 07:33:11;;;;;;;16.27;5.15;;;24.10;59.70;;;;;;3148571;28;20044;-87
2021/08/31 07:34:44;;;;;;;13.40;4.57;;;24.10;59.80;;;;;;3148924;28;20045;-87
2021/08/31 07:36:20;;;;;;;19.00;5.32;;;24.00;59.90;;;;;;3148755;28;20048;-88
2021/08/31 07:37:52;;;;;;;18.02;4.60;;;24.00;59.90;;;;;;3148343;28;20139;-89
2021/08/31 07:39:24;;;;;;;16.20;4.88;;;24.00;60.10;;;;;;3149036;28;20052;-87
2021/08/31 07:40:55;;;;;;;11.18;4.55;;;24.00;60.10;;;;;;3148941;28;20139;-88
2021/08/31 07:42:27;;;;;;;15.77;4.78;;;24.00;60.10;;;;;;3149035;28;20094;-87
2021/08/31 07:44:01;;;;;;;14.40;4.72;;;24.00;60.20;;;;;;3148100;28;20041;-88
2021/08/31 07:45:33;;;;;;;17.45;4.53;;;24.00;60.30;;;;;;3148207;28;20515;-89
2021/08/31 07:47:05;;;;;;;15.80;5.10;;;24.00;60.20;;;;;;3148824;28;20123;-87
2021/08/31 07:48:37;;;;;;;13.30;4.70;;;24.00;60.10;;;;;;3147757;28;20105;-89
2021/08/31 07:50:11;;;;;;;18.63;5.05;;;24.00;60.40;;;;;;3145885;28;20057;-87
2021/08/31 07:51:42;;;;;;;22.58;5.53;;;23.90;60.40;;;;;;3136181;28;20120;-88
2021/08/31 07:53:14;;;;;;;15.38;5.03;;;23.90;60.10;;;;;;3135467;28;20573;-88
2021/08/31 07:54:46;;;;;;;19.33;5.20;;;24.00;60.10;;;;;;3135956;28;20049;-88
2021/08/31 07:56:18;;;;;;;18.77;5.53;;;24.00;60.00;;;;;;3136418;28;20060;-88
2021/08/31 07:57:49;;;;;;;14.85;5.55;;;24.00;60.10;;;;;;3135624;28;20057;-89